Aviation Digital Data Service (ADDS)

Output produced by METARs form (1823 UTC 22 November 2017)
found at http://www.aviationweather.gov/adds/metars/
 
VNKT 221820Z VRB02KT 7000 FEW020 10/09 Q1016 NOSIG
TAF VNKT 221700Z 2218/2318 VRB02KT 7000 FEW015 
     BECMG 2300/2302 4000 BR FEW010 
     PROB30 2301/2303 2000 BR 
     BECMG 2304/2305 13003KT 5000 HZ FEW015 
     BECMG 2307/2308 23008KT 8000 FEW020 
     BECMG 2314/2315 VRB02KT 6000 FEW015